Tasman Sea — WDB5559 — position and weather

sailwx.info

Track history (hours):
 
Tides and Currents Weather Stations Pressure Air Temp Water Temp Dewpoint Dewpoint Depression Visibility Wind Speed Wind Dir Waves Ship Positions

Tasman Sea

Owner: Kirby Offshore Marine, LLC, Staten Island, NY. More information available from US FCC via Universal Licensing System and Coast Guard Vessel Documentation Center.

Last reported at 2015-Jul-02 15:33 UTC. Time now 2015-Jul-05 02:36 UTC.
Position N 40°57' W 073°54'.

Length 38 m; draft 5 m.

Type: Tug. MMSI: 366910960.

Date/timePositionNaut miles runAvg speedWind from/ knotsBaromVisibWave heightAir tempDewpointWater temp
2015-Jul-02 15:33N 40°57' W 073°54'8 7.7
2015-Jul-02 14:33N 40°50' W 073°58'8 8.1
2015-Jul-02 13:33N 40°42' W 074°02'6 6.2
2015-Jul-02 12:33N 40°39' W 074°08'5 4.1
2015-Jul-02 11:24N 40°35' W 074°13'0 0.1
2015-Jul-02 09:33N 40°35' W 074°12'0 0.1
2015-Jul-02 04:04N 40°36' W 074°12'3 0.5
2015-Jul-01 22:16N 40°33' W 074°15'2 2.6
2015-Jul-01 21:24N 40°35' W 074°13'4 4.6
2015-Jul-01 20:33N 40°38' W 074°10'0 0.0
2015-Jul-01 19:33N 40°38' W 074°10'0 0.0
2015-Jul-01 18:33N 40°38' W 074°10'1 0.9
2015-Jul-01 17:33N 40°39' W 074°11'4 3.5
2015-Jul-01 16:31N 40°35' W 074°13'3 3.0
2015-Jul-01 15:33N 40°38' W 074°12'7 7.0
2015-Jul-01 14:33N 40°40' W 074°03'7 7.5
2015-Jul-01 13:34N 40°46' W 073°57'7 6.7
2015-Jul-01 12:33N 40°48' W 073°49'8 7.8
2015-Jul-01 11:32N 40°54' W 073°41'9 8.9
2015-Jul-01 10:33N 40°58' W 073°31'9 8.5
2015-Jul-01 09:33N 41°01' W 073°21'9 8.8
2015-Jul-01 08:33N 41°02' W 073°09'8 8.2
2015-Jul-01 07:33N 41°04' W 072°59'8 8.3
2015-Jul-01 06:33N 41°06' W 072°48'8 8.0
2015-Jul-01 05:33N 41°08' W 072°37'8 7.7
2015-Jul-01 04:33N 41°09' W 072°27'8 7.9
2015-Jul-01 03:33N 41°12' W 072°17'9 9.0
2015-Jul-01 02:33N 41°14' W 072°06'1010.2
2015-Jul-01 01:33N 41°15' W 071°53'1010.2
2015-Jul-01 00:33N 41°17' W 071°39'9 9.0
2015-Jun-30 23:33N 41°19' W 071°28'9 8.8
2015-Jun-30 22:33N 41°27' W 071°23'8 7.6
2015-Jun-30 21:33N 41°34' W 071°19'8 8.0
2015-Jun-30 20:33N 41°42' W 071°20'5 0.6
2015-Jun-30 11:22N 41°47' W 071°22'0 0.0
2015-Jun-30 10:28N 41°47' W 071°22'0 0.0
2015-Jun-30 09:28N 41°47' W 071°22'0 0.0
2015-Jun-30 08:31N 41°47' W 071°22'0 0.0
2015-Jun-30 07:25N 41°47' W 071°22'0 0.0
2015-Jun-30 06:31N 41°47' W 071°22'0 0.0
2015-Jun-30 05:16N 41°47' W 071°22'0 0.0
2015-Jun-30 04:19N 41°47' W 071°22'0 0.0
2015-Jun-30 03:13N 41°47' W 071°22'0 0.0
2015-Jun-30 02:16N 41°47' W 071°22'0 0.4
2015-Jun-30 01:33N 41°47' W 071°22'4 3.8
2015-Jun-30 00:33N 41°43' W 071°21'7 7.0
2015-Jun-29 23:33N 41°37' W 071°17'0 0.1
2015-Jun-29 22:30N 41°37' W 071°17'0 0.0
2015-Jun-29 21:30N 41°37' W 071°17'0 0.0
2015-Jun-29 20:30N 41°37' W 071°17'0 0.1
2015-Jun-29 19:30N 41°37' W 071°17'0 0.0
2015-Jun-29 18:30N 41°37' W 071°17'0 0.1
2015-Jun-29 17:30N 41°37' W 071°17'0 0.0
2015-Jun-29 15:33N 41°37' W 071°17'0 0.0
2015-Jun-29 12:06N 41°37' W 071°17'0 0.2
2015-Jun-29 11:33N 41°37' W 071°17'0 0.1
2015-Jun-29 10:33N 41°37' W 071°17'0 0.0
2015-Jun-29 09:34N 41°37' W 071°17'0 0.0
2015-Jun-29 08:34N 41°37' W 071°17'4 3.1
2015-Jun-29 07:22N 41°33' W 071°19'6 7.8
2015-Jun-29 06:34N 41°28' W 071°23'7 6.5
2015-Jun-29 05:29N 41°25' W 071°14'8 8.0
2015-Jun-29 04:27N 41°25' W 071°03'18 8.1
2015-Jun-29 02:12N 41°35' W 070°43'27 7.5
2015-Jun-28 22:34N 42°01' W 070°32'9 8.0
2015-Jun-28 21:26N 42°10' W 070°36'8 7.3
2015-Jun-28 20:18N 42°17' W 070°41'17 1.5
2015-Jun-28 09:16N 42°22' W 071°03'1 0.1
2015-Jun-27 17:29N 42°22' W 071°02'2 0.1
2015-Jun-27 05:32N 42°23' W 071°02'9 1.5
2015-Jun-26 23:33N 42°23' W 070°50'49 3.5
2015-Jun-26 09:32N 41°34' W 070°43'7 6.8
2015-Jun-26 08:33N 41°30' W 070°51'7 7.3
2015-Jun-26 07:34N 41°27' W 070°59'7 7.1
2015-Jun-26 06:33N 41°22' W 071°05'7 7.0
2015-Jun-26 05:33N 41°16' W 071°11'7 7.0
2015-Jun-26 04:33N 41°11' W 071°17'7 6.9
2015-Jun-26 03:33N 41°08' W 071°25'7 6.9
2015-Jun-26 02:33N 41°05' W 071°33'8 7.5
2015-Jun-26 01:33N 41°02' W 071°43'7 6.9
2015-Jun-26 00:34N 40°60' W 071°51'7 6.9
2015-Jun-25 23:34N 40°57' W 071°60'7 6.9
2015-Jun-25 22:33N 40°54' W 072°08'7 7.1
2015-Jun-25 21:33N 40°51' W 072°16'7 7.2
2015-Jun-25 20:33N 40°48' W 072°25'7 7.3
2015-Jun-25 19:33N 40°46' W 072°34'66 7.0
2015-Jun-25 10:09N 40°28' W 073°58'14 5.0
2015-Jun-25 07:22N 40°33' W 074°15'0 0.0
2015-Jun-25 03:32N 40°33' W 074°15'7 7.2
2015-Jun-25 02:33N 40°39' W 074°10'1 0.3
2015-Jun-25 00:33N 40°38' W 074°10'2 1.6
2015-Jun-24 23:33N 40°38' W 074°12'6 5.6
2015-Jun-24 22:29N 40°33' W 074°15'7 7.7
2015-Jun-24 21:33N 40°38' W 074°10'0 0.0
2015-Jun-24 20:33N 40°38' W 074°10'0 0.0
2015-Jun-24 19:33N 40°38' W 074°10'0 0.0
2015-Jun-24 18:33N 40°38' W 074°10'0 0.0
2015-Jun-24 17:33N 40°38' W 074°10'1 1.4
2015-Jun-24 16:33N 40°38' W 074°12'6 3.0
2015-Jun-24 14:32N 40°33' W 074°15'0 0.0
2015-Jun-24 13:30N 40°33' W 074°15'0 0.1
2015-Jun-24 12:33N 40°33' W 074°15'3 2.7
2015-Jun-24 11:33N 40°34' W 074°13'6 5.9
2015-Jun-24 10:33N 40°39' W 074°07'9 8.6
2015-Jun-24 09:33N 40°44' W 073°58'8 7.9
2015-Jun-24 08:31N 40°48' W 073°49'8 7.9
2015-Jun-24 07:33N 40°54' W 073°42'9 9.4
2015-Jun-24 06:33N 40°58' W 073°31'9 9.2
2015-Jun-24 05:33N 41°01' W 073°19'9 9.2
2015-Jun-24 04:33N 41°02' W 073°07'9 9.0
2015-Jun-24 03:33N 41°04' W 072°56'9 8.8
2015-Jun-24 02:33N 41°06' W 072°44'8 8.1
2015-Jun-24 01:33N 41°08' W 072°34'7 7.0
2015-Jun-24 00:33N 41°10' W 072°25'6 6.4
2015-Jun-23 23:33N 41°12' W 072°17'7 7.2
2015-Jun-23 22:33N 41°14' W 072°08'8 8.1
2015-Jun-23 21:33N 41°15' W 071°57'9 8.6
2015-Jun-23 20:33N 41°16' W 071°46'9 8.5
2015-Jun-23 19:33N 41°18' W 071°35'4 8.6
2015-Jun-23 19:06N 41°18' W 071°29'  
Track history (hours):
 
Tides and Currents Weather Stations Pressure Air Temp Water Temp Dewpoint Dewpoint Depression Visibility Wind Speed Wind Dir Waves Ship Positions

Tasman Sea

Owner: Kirby Offshore Marine, LLC, Staten Island, NY. More information available from US FCC via Universal Licensing System and Coast Guard Vessel Documentation Center.

Last reported at 2015-Jul-02 15:33 UTC. Time now 2015-Jul-05 02:36 UTC.
Position N 40°57' W 073°54'.

Length 38 m; draft 5 m.

Type: Tug. MMSI: 366910960.

Date/timePositionNaut miles runAvg speedWind from/ knotsBaromVisibWave heightAir tempDewpointWater temp
2015-Jul-02 15:33N 40°57' W 073°54'8 7.7
2015-Jul-02 14:33N 40°50' W 073°58'8 8.1
2015-Jul-02 13:33N 40°42' W 074°02'6 6.2
2015-Jul-02 12:33N 40°39' W 074°08'5 4.1
2015-Jul-02 11:24N 40°35' W 074°13'0 0.1
2015-Jul-02 09:33N 40°35' W 074°12'0 0.1
2015-Jul-02 04:04N 40°36' W 074°12'3 0.5
2015-Jul-01 22:16N 40°33' W 074°15'2 2.6
2015-Jul-01 21:24N 40°35' W 074°13'4 4.6
2015-Jul-01 20:33N 40°38' W 074°10'0 0.0
2015-Jul-01 19:33N 40°38' W 074°10'0 0.0
2015-Jul-01 18:33N 40°38' W 074°10'1 0.9
2015-Jul-01 17:33N 40°39' W 074°11'4 3.5
2015-Jul-01 16:31N 40°35' W 074°13'3 3.0
2015-Jul-01 15:33N 40°38' W 074°12'7 7.0
2015-Jul-01 14:33N 40°40' W 074°03'7 7.5
2015-Jul-01 13:34N 40°46' W 073°57'7 6.7
2015-Jul-01 12:33N 40°48' W 073°49'8 7.8
2015-Jul-01 11:32N 40°54' W 073°41'9 8.9
2015-Jul-01 10:33N 40°58' W 073°31'9 8.5
2015-Jul-01 09:33N 41°01' W 073°21'9 8.8
2015-Jul-01 08:33N 41°02' W 073°09'8 8.2
2015-Jul-01 07:33N 41°04' W 072°59'8 8.3
2015-Jul-01 06:33N 41°06' W 072°48'8 8.0
2015-Jul-01 05:33N 41°08' W 072°37'8 7.7
2015-Jul-01 04:33N 41°09' W 072°27'8 7.9
2015-Jul-01 03:33N 41°12' W 072°17'9 9.0
2015-Jul-01 02:33N 41°14' W 072°06'1010.2
2015-Jul-01 01:33N 41°15' W 071°53'1010.2
2015-Jul-01 00:33N 41°17' W 071°39'9 9.0
2015-Jun-30 23:33N 41°19' W 071°28'9 8.8
2015-Jun-30 22:33N 41°27' W 071°23'8 7.6
2015-Jun-30 21:33N 41°34' W 071°19'8 8.0
2015-Jun-30 20:33N 41°42' W 071°20'5 0.6
2015-Jun-30 11:22N 41°47' W 071°22'0 0.0
2015-Jun-30 10:28N 41°47' W 071°22'0 0.0
2015-Jun-30 09:28N 41°47' W 071°22'0 0.0
2015-Jun-30 08:31N 41°47' W 071°22'0 0.0
2015-Jun-30 07:25N 41°47' W 071°22'0 0.0
2015-Jun-30 06:31N 41°47' W 071°22'0 0.0
2015-Jun-30 05:16N 41°47' W 071°22'0 0.0
2015-Jun-30 04:19N 41°47' W 071°22'0 0.0
2015-Jun-30 03:13N 41°47' W 071°22'0 0.0
2015-Jun-30 02:16N 41°47' W 071°22'0 0.4
2015-Jun-30 01:33N 41°47' W 071°22'4 3.8
2015-Jun-30 00:33N 41°43' W 071°21'7 7.0
2015-Jun-29 23:33N 41°37' W 071°17'0 0.1
2015-Jun-29 22:30N 41°37' W 071°17'0 0.0
2015-Jun-29 21:30N 41°37' W 071°17'0 0.0
2015-Jun-29 20:30N 41°37' W 071°17'0 0.1
2015-Jun-29 19:30N 41°37' W 071°17'0 0.0
2015-Jun-29 18:30N 41°37' W 071°17'0 0.1
2015-Jun-29 17:30N 41°37' W 071°17'0 0.0
2015-Jun-29 15:33N 41°37' W 071°17'0 0.0
2015-Jun-29 12:06N 41°37' W 071°17'0 0.2
2015-Jun-29 11:33N 41°37' W 071°17'0 0.1
2015-Jun-29 10:33N 41°37' W 071°17'0 0.0
2015-Jun-29 09:34N 41°37' W 071°17'0 0.0
2015-Jun-29 08:34N 41°37' W 071°17'4 3.1
2015-Jun-29 07:22N 41°33' W 071°19'6 7.8
2015-Jun-29 06:34N 41°28' W 071°23'7 6.5
2015-Jun-29 05:29N 41°25' W 071°14'8 8.0
2015-Jun-29 04:27N 41°25' W 071°03'18 8.1
2015-Jun-29 02:12N 41°35' W 070°43'27 7.5
2015-Jun-28 22:34N 42°01' W 070°32'9 8.0
2015-Jun-28 21:26N 42°10' W 070°36'8 7.3
2015-Jun-28 20:18N 42°17' W 070°41'17 1.5
2015-Jun-28 09:16N 42°22' W 071°03'1 0.1
2015-Jun-27 17:29N 42°22' W 071°02'2 0.1
2015-Jun-27 05:32N 42°23' W 071°02'9 1.5
2015-Jun-26 23:33N 42°23' W 070°50'49 3.5
2015-Jun-26 09:32N 41°34' W 070°43'7 6.8
2015-Jun-26 08:33N 41°30' W 070°51'7 7.3
2015-Jun-26 07:34N 41°27' W 070°59'7 7.1
2015-Jun-26 06:33N 41°22' W 071°05'7 7.0
2015-Jun-26 05:33N 41°16' W 071°11'7 7.0
2015-Jun-26 04:33N 41°11' W 071°17'7 6.9
2015-Jun-26 03:33N 41°08' W 071°25'7 6.9
2015-Jun-26 02:33N 41°05' W 071°33'8 7.5
2015-Jun-26 01:33N 41°02' W 071°43'7 6.9
2015-Jun-26 00:34N 40°60' W 071°51'7 6.9
2015-Jun-25 23:34N 40°57' W 071°60'7 6.9
2015-Jun-25 22:33N 40°54' W 072°08'7 7.1
2015-Jun-25 21:33N 40°51' W 072°16'7 7.2
2015-Jun-25 20:33N 40°48' W 072°25'7 7.3
2015-Jun-25 19:33N 40°46' W 072°34'66 7.0
2015-Jun-25 10:09N 40°28' W 073°58'14 5.0
2015-Jun-25 07:22N 40°33' W 074°15'0 0.0
2015-Jun-25 03:32N 40°33' W 074°15'7 7.2
2015-Jun-25 02:33N 40°39' W 074°10'1 0.3
2015-Jun-25 00:33N 40°38' W 074°10'2 1.6
2015-Jun-24 23:33N 40°38' W 074°12'6 5.6
2015-Jun-24 22:29N 40°33' W 074°15'7 7.7
2015-Jun-24 21:33N 40°38' W 074°10'0 0.0
2015-Jun-24 20:33N 40°38' W 074°10'0 0.0
2015-Jun-24 19:33N 40°38' W 074°10'0 0.0
2015-Jun-24 18:33N 40°38' W 074°10'0 0.0
2015-Jun-24 17:33N 40°38' W 074°10'1 1.4
2015-Jun-24 16:33N 40°38' W 074°12'6 3.0
2015-Jun-24 14:32N 40°33' W 074°15'0 0.0
2015-Jun-24 13:30N 40°33' W 074°15'0 0.1
2015-Jun-24 12:33N 40°33' W 074°15'3 2.7
2015-Jun-24 11:33N 40°34' W 074°13'6 5.9
2015-Jun-24 10:33N 40°39' W 074°07'9 8.6
2015-Jun-24 09:33N 40°44' W 073°58'8 7.9
2015-Jun-24 08:31N 40°48' W 073°49'8 7.9
2015-Jun-24 07:33N 40°54' W 073°42'9 9.4
2015-Jun-24 06:33N 40°58' W 073°31'9 9.2
2015-Jun-24 05:33N 41°01' W 073°19'9 9.2
2015-Jun-24 04:33N 41°02' W 073°07'9 9.0
2015-Jun-24 03:33N 41°04' W 072°56'9 8.8
2015-Jun-24 02:33N 41°06' W 072°44'8 8.1
2015-Jun-24 01:33N 41°08' W 072°34'7 7.0
2015-Jun-24 00:33N 41°10' W 072°25'6 6.4
2015-Jun-23 23:33N 41°12' W 072°17'7 7.2
2015-Jun-23 22:33N 41°14' W 072°08'8 8.1
2015-Jun-23 21:33N 41°15' W 071°57'9 8.6
2015-Jun-23 20:33N 41°16' W 071°46'9 8.5
2015-Jun-23 19:33N 41°18' W 071°35'4 8.6
2015-Jun-23 19:06N 41°18' W 071°29'  

Dump ship's entire track history